createdAt,value
2022-09-01T00:00:13.347Z,99869.19
2022-09-01T00:02:43.221Z,99876.81
2022-09-01T00:05:10.668Z,99878.28
2022-09-01T00:07:37.836Z,99885.78
2022-09-01T00:10:06.355Z,99882.22
2022-09-01T00:12:34.148Z,99894.75
2022-09-01T00:15:01.309Z,99900.59
2022-09-01T00:17:30.452Z,99900.78
2022-09-01T00:19:57.596Z,99907.69
2022-09-01T00:22:24.766Z,99901.25
2022-09-01T00:24:52.271Z,99901.00
2022-09-01T00:27:19.443Z,99903.16
2022-09-01T00:29:47.137Z,99901.78
2022-09-01T00:32:14.610Z,99907.44
2022-09-01T00:34:42.000Z,99910.31
2022-09-01T00:37:09.214Z,99912.22
2022-09-01T00:39:39.328Z,99906.19
2022-09-01T00:42:07.068Z,99911.66
2022-09-01T00:44:36.481Z,99900.34
2022-09-01T00:47:06.791Z,99905.78
2022-09-01T00:49:45.324Z,99906.88
2022-09-01T00:52:17.993Z,99904.50
2022-09-01T00:54:46.608Z,99920.44
2022-09-01T00:57:14.049Z,99917.81
2022-09-01T00:59:47.192Z,99920.84
2022-09-01T01:02:14.709Z,99917.19
2022-09-01T01:04:43.885Z,99919.44
2022-09-01T01:07:11.350Z,99919.69
2022-09-01T01:09:58.031Z,99924.69
2022-09-01T01:12:28.069Z,99917.09
2022-09-01T01:14:56.119Z,99912.53
2022-09-01T01:17:23.405Z,99908.16
2022-09-01T01:20:14.148Z,99916.53
2022-09-01T01:23:05.693Z,99913.78
2022-09-01T01:25:38.448Z,99919.09
2022-09-01T01:28:15.924Z,99907.25
2022-09-01T01:30:44.852Z,99914.91
2022-09-01T01:33:12.336Z,99911.59
2022-09-01T01:35:41.999Z,99915.94
2022-09-01T01:38:09.251Z,99915.38
2022-09-01T01:40:37.548Z,99919.38
2022-09-01T01:43:05.594Z,99919.56
2022-09-01T01:45:32.972Z,99917.94
2022-09-01T01:48:01.203Z,99911.22
2022-09-01T01:50:34.154Z,99909.19
2022-09-01T01:53:03.630Z,99908.91
2022-09-01T01:55:39.564Z,99903.91
2022-09-01T01:58:09.888Z,99894.94
2022-09-01T02:00:37.790Z,99888.97
2022-09-01T02:03:05.302Z,99882.31
2022-09-01T02:05:33.231Z,99871.41
2022-09-01T02:08:05.256Z,99880.44
2022-09-01T02:10:34.305Z,99879.78
2022-09-01T02:13:07.119Z,99876.00
2022-09-01T02:15:38.824Z,99882.81
2022-09-01T02:18:06.155Z,99882.47
2022-09-01T02:20:33.552Z,99883.19
2022-09-01T02:23:10.679Z,99883.94
2022-09-01T02:25:45.939Z,99881.19
2022-09-01T02:28:28.687Z,99883.00
2022-09-01T02:30:57.730Z,99883.31
2022-09-01T02:33:25.925Z,99889.94
2022-09-01T02:35:57.670Z,99874.03
2022-09-01T02:38:30.218Z,99875.28
2022-09-01T02:40:58.953Z,99866.16
2022-09-01T02:43:28.249Z,99861.75
2022-09-01T02:45:57.695Z,99871.22
2022-09-01T02:48:35.885Z,99872.78
2022-09-01T02:51:04.670Z,99876.38
2022-09-01T02:53:35.612Z,99867.84
2022-09-01T02:56:04.390Z,99859.69
2022-09-01T02:58:34.450Z,99853.41
2022-09-01T03:01:02.854Z,99857.22
2022-09-01T03:03:30.185Z,99859.53
2022-09-01T03:05:58.056Z,99850.84
2022-09-01T03:08:25.419Z,99832.78
2022-09-01T03:10:54.295Z,99836.16
2022-09-01T03:13:23.745Z,99841.63
2022-09-01T03:15:51.060Z,99848.84
2022-09-01T03:18:21.645Z,99851.06
2022-09-01T03:20:54.084Z,99857.50
2022-09-01T03:23:21.329Z,99868.19
2022-09-01T03:25:49.344Z,99873.72
2022-09-01T03:28:17.317Z,99868.28
2022-09-01T03:30:46.142Z,99876.97
2022-09-01T03:33:13.889Z,99884.47
2022-09-01T03:35:42.127Z,99876.78
2022-09-01T03:38:09.785Z,99873.72
2022-09-01T03:40:38.206Z,99861.31
2022-09-01T03:43:07.036Z,99858.75
2022-09-01T03:45:38.498Z,99851.31
2022-09-01T03:48:09.088Z,99843.66
2022-09-01T03:50:47.329Z,99838.81
2022-09-01T03:53:16.098Z,99848.50
2022-09-01T03:55:45.205Z,99842.38
2022-09-01T03:58:14.554Z,99851.28
2022-09-01T04:00:47.717Z,99848.25
2022-09-01T04:03:28.582Z,99845.00
2022-09-01T04:05:56.602Z,99840.59
2022-09-01T04:08:32.902Z,99845.47
2022-09-01T04:11:02.922Z,99843.75
2022-09-01T04:13:37.608Z,99841.78
2022-09-01T04:16:31.777Z,99841.03
2022-09-01T04:19:00.480Z,99847.16
2022-09-01T04:21:30.451Z,99831.84
2022-09-01T04:24:05.286Z,99831.22
2022-09-01T04:26:34.242Z,99831.13
2022-09-01T04:29:01.396Z,99835.47
2022-09-01T04:31:31.064Z,99839.34
2022-09-01T04:33:59.260Z,99843.38
2022-09-01T04:36:27.525Z,99846.41
2022-09-01T04:38:56.122Z,99852.22
2022-09-01T04:41:31.017Z,99857.56
2022-09-01T04:44:01.416Z,99860.81
2022-09-01T04:46:32.523Z,99846.97
2022-09-01T04:49:03.305Z,99855.78
2022-09-01T04:51:31.125Z,99853.09
2022-09-01T04:53:58.370Z,99853.63
2022-09-01T04:56:26.846Z,99850.09
2022-09-01T04:58:55.854Z,99848.19
2022-09-01T05:01:24.432Z,99846.97
2022-09-01T05:04:01.389Z,99856.94
2022-09-01T05:06:33.955Z,99860.97
2022-09-01T05:09:01.354Z,99867.69
2022-09-01T05:11:29.811Z,99874.59
2022-09-01T05:13:58.371Z,99876.75
2022-09-01T05:16:27.966Z,99874.88
2022-09-01T05:18:57.003Z,99875.72
2022-09-01T05:21:26.668Z,99865.00
2022-09-01T05:23:54.345Z,99868.47
2022-09-01T05:26:23.882Z,99869.19
2022-09-01T05:28:54.036Z,99866.53
2022-09-01T05:31:22.373Z,99860.81
2022-09-01T05:33:50.894Z,99867.94
2022-09-01T05:36:20.236Z,99877.75
2022-09-01T05:38:48.184Z,99866.47
2022-09-01T05:41:16.176Z,99871.66
2022-09-01T05:43:49.036Z,99877.38
2022-09-01T05:46:17.039Z,99880.59
2022-09-01T05:48:45.517Z,99880.44
2022-09-01T05:51:42.227Z,99880.09
2022-09-01T05:54:05.024Z,99880.22
2022-09-01T05:56:37.630Z,99879.72
2022-09-01T05:59:23.676Z,99883.00
2022-09-01T06:01:53.369Z,99877.81
2022-09-01T06:04:22.350Z,99883.34
2022-09-01T06:07:07.923Z,99872.97
2022-09-01T06:09:40.092Z,99870.16
2022-09-01T06:12:11.991Z,99866.38
2022-09-01T06:14:39.578Z,99868.53
2022-09-01T06:17:10.094Z,99882.22
2022-09-01T06:19:38.316Z,99884.88
2022-09-01T06:22:06.495Z,99885.41
2022-09-01T06:24:33.806Z,99883.97
2022-09-01T06:27:01.270Z,99882.59
2022-09-01T06:29:31.405Z,99885.66
2022-09-01T06:32:02.348Z,99882.94
2022-09-01T06:34:31.988Z,99887.03
2022-09-01T06:36:59.843Z,99883.16
2022-09-01T06:39:27.094Z,99892.78
2022-09-01T06:41:58.136Z,99887.06
2022-09-01T06:44:26.082Z,99890.31
2022-09-01T06:46:53.911Z,99893.63
2022-09-01T06:49:23.670Z,99893.94
2022-09-01T06:51:52.795Z,99904.63
2022-09-01T06:54:22.884Z,99898.41
2022-09-01T06:56:51.721Z,99905.47
2022-09-01T06:59:20.772Z,99894.09
2022-09-01T07:04:43.077Z,99911.38
2022-09-01T07:10:18.311Z,99929.78
2022-09-01T07:13:07.824Z,99922.81
2022-09-01T07:18:31.334Z,99916.47
2022-09-01T07:21:07.679Z,99925.06
2022-09-01T07:24:07.638Z,99924.06
2022-09-01T07:26:36.623Z,99924.94
2022-09-01T07:29:12.940Z,99922.97
2022-09-01T07:34:46.288Z,99933.31
2022-09-01T07:38:46.903Z,99932.03
2022-09-01T07:39:57.367Z,99897.41
2022-09-01T07:45:33.408Z,99934.25
2022-09-01T07:48:06.612Z,99932.53
2022-09-01T07:50:40.982Z,99920.03
2022-09-01T07:53:31.460Z,99924.59
2022-09-01T07:56:00.128Z,99922.06
2022-09-01T07:58:28.256Z,99930.47
2022-09-01T08:01:02.861Z,99929.94
2022-09-01T08:03:30.480Z,99926.16
2022-09-01T08:06:04.097Z,99920.53
2022-09-01T08:08:31.985Z,99923.38
2022-09-01T08:11:06.326Z,99925.81
2022-09-01T08:13:38.922Z,99923.03
2022-09-01T08:16:16.850Z,99923.97
2022-09-01T08:18:48.600Z,99925.91
2022-09-01T08:21:22.224Z,99933.84
2022-09-01T08:23:54.424Z,99932.87
2022-09-01T08:26:23.428Z,99936.44
2022-09-01T08:28:55.194Z,99934.84
2022-09-01T08:31:24.630Z,99942.91
2022-09-01T08:33:52.214Z,99939.44
2022-09-01T08:36:23.698Z,99941.28
2022-09-01T08:38:52.724Z,99938.75
2022-09-01T08:41:28.559Z,99942.66
2022-09-01T08:44:00.336Z,99942.66
2022-09-01T08:46:28.715Z,99948.72
2022-09-01T08:49:24.120Z,99944.09
2022-09-01T08:51:48.066Z,99951.38
2022-09-01T08:54:29.750Z,99947.37
2022-09-01T08:57:02.435Z,99945.72
2022-09-01T08:59:36.146Z,99949.31
2022-09-01T09:04:53.539Z,99946.00
2022-09-01T09:07:39.392Z,99953.91
2022-09-01T09:10:12.998Z,99949.94
2022-09-01T09:12:49.558Z,99946.94
2022-09-01T09:15:19.159Z,99952.63
2022-09-01T09:17:47.810Z,99944.22
2022-09-01T09:20:14.985Z,99943.00
2022-09-01T09:22:42.489Z,99934.31
2022-09-01T09:25:10.875Z,99934.31
2022-09-01T09:27:39.274Z,99930.38
2022-09-01T09:30:12.913Z,99923.09
2022-09-01T09:33:19.979Z,99919.72
2022-09-01T09:35:36.346Z,99917.81
2022-09-01T09:38:33.639Z,99915.75
2022-09-01T09:41:20.398Z,99918.09
2022-09-01T09:43:49.752Z,99913.09
2022-09-01T09:46:25.276Z,99913.16
2022-09-01T09:49:11.267Z,99907.75
2022-09-01T09:51:39.602Z,99920.28
2022-09-01T09:54:22.173Z,99915.44
2022-09-01T09:56:50.080Z,99903.69
2022-09-01T09:59:45.873Z,99913.44
2022-09-01T10:02:23.162Z,99907.66
2022-09-01T10:04:56.185Z,99914.53
2022-09-01T10:07:26.624Z,99913.59
2022-09-01T10:09:55.021Z,99905.09
2022-09-01T10:12:23.777Z,99908.28
2022-09-01T10:15:05.537Z,99907.06
2022-09-01T10:17:43.520Z,99903.88
2022-09-01T10:20:17.055Z,99901.63
2022-09-01T10:22:44.792Z,99901.13
2022-09-01T10:25:14.376Z,99899.09
2022-09-01T10:27:42.442Z,99901.44
2022-09-01T10:30:20.112Z,99900.44
2022-09-01T10:32:55.224Z,99897.81
2022-09-01T10:35:27.466Z,99899.06
2022-09-01T10:37:54.923Z,99885.56
2022-09-01T10:40:32.056Z,99885.38
2022-09-01T10:43:05.488Z,99887.50
2022-09-01T10:45:34.563Z,99892.59
2022-09-01T10:48:30.487Z,99888.59
2022-09-01T10:51:18.431Z,99890.94
2022-09-01T10:53:47.143Z,99890.22
2022-09-01T10:56:36.643Z,99877.94
2022-09-01T11:02:22.994Z,99875.59
2022-09-01T11:04:41.557Z,99875.34
2022-09-01T11:07:50.759Z,99882.34
2022-09-01T11:10:32.773Z,99872.59
2022-09-01T11:13:01.047Z,99873.50
2022-09-01T11:15:35.461Z,99879.19
2022-09-01T11:18:03.671Z,99874.69
2022-09-01T11:20:34.870Z,99873.81
2022-09-01T11:23:22.031Z,99870.41
2022-09-01T11:26:19.052Z,99864.56
2022-09-01T11:28:38.035Z,99865.84
2022-09-01T11:31:08.628Z,99874.13
2022-09-01T11:33:39.508Z,99868.00
2022-09-01T11:36:12.750Z,99869.31
2022-09-01T11:38:55.224Z,99859.25
2022-09-01T11:41:29.001Z,99864.00
2022-09-01T11:43:58.183Z,99858.03
2022-09-01T11:46:27.342Z,99857.94
2022-09-01T11:48:54.967Z,99859.28
2022-09-01T11:51:22.128Z,99852.91
2022-09-01T11:53:50.493Z,99858.78
2022-09-01T11:56:20.044Z,99853.56
2022-09-01T11:58:47.561Z,99851.50
2022-09-01T12:01:18.223Z,99853.25
2022-09-01T12:03:47.218Z,99843.69
2022-09-01T12:06:19.007Z,99837.91
2022-09-01T12:08:51.589Z,99846.34
2022-09-01T12:11:19.956Z,99845.09
2022-09-01T12:14:05.618Z,99831.06
2022-09-01T12:16:37.887Z,99836.06
2022-09-01T12:19:05.856Z,99836.78
2022-09-01T12:21:34.676Z,99834.47
2022-09-01T12:24:20.809Z,99834.41
2022-09-01T12:26:48.948Z,99840.53
2022-09-01T12:29:16.492Z,99834.59
2022-09-01T12:31:44.841Z,99827.94
2022-09-01T12:34:30.933Z,99837.75
2022-09-01T12:37:16.623Z,99834.25
2022-09-01T12:39:46.179Z,99833.66
2022-09-01T12:42:19.339Z,99817.41
2022-09-01T12:44:49.156Z,99820.28
2022-09-01T12:47:33.570Z,99820.16
2022-09-01T12:50:03.463Z,99827.53
2022-09-01T12:52:31.067Z,99824.63
2022-09-01T12:54:58.355Z,99825.28
2022-09-01T12:57:29.867Z,99829.19
2022-09-01T13:00:06.759Z,99824.06
2022-09-01T13:02:38.374Z,99820.28
2022-09-01T13:05:19.210Z,99829.91
2022-09-01T13:07:46.633Z,99831.44
2022-09-01T13:10:14.706Z,99829.03
2022-09-01T13:12:42.123Z,99820.28
2022-09-01T13:15:10.194Z,99823.72
2022-09-01T13:17:38.380Z,99818.37
2022-09-01T13:20:06.570Z,99816.28
2022-09-01T13:22:35.133Z,99812.09
2022-09-01T13:25:02.309Z,99821.66
2022-09-01T13:27:29.514Z,99817.63
2022-09-01T13:29:57.173Z,99818.25
2022-09-01T13:32:26.757Z,99818.37
2022-09-01T13:34:55.116Z,99814.75
2022-09-01T13:37:24.096Z,99825.09
2022-09-01T13:39:51.450Z,99816.13
2022-09-01T13:42:22.098Z,99825.50
2022-09-01T13:44:54.075Z,99826.84
2022-09-01T13:47:31.796Z,99822.22
2022-09-01T13:50:11.137Z,99818.37
2022-09-01T13:52:43.198Z,99817.97
2022-09-01T13:55:11.800Z,99817.41
2022-09-01T13:57:39.038Z,99824.06
2022-09-01T14:00:08.998Z,99825.63
2022-09-01T14:02:40.707Z,99825.09
2022-09-01T14:05:08.478Z,99827.66
2022-09-01T14:07:35.739Z,99830.66
2022-09-01T14:10:02.932Z,99825.66
2022-09-01T14:12:30.845Z,99820.34
2022-09-01T14:15:16.493Z,99826.09
2022-09-01T14:17:44.601Z,99828.16
2022-09-01T14:20:13.748Z,99827.47
2022-09-01T14:22:41.063Z,99825.22
2022-09-01T14:25:09.013Z,99824.56
2022-09-01T14:27:36.382Z,99822.75
2022-09-01T14:30:04.536Z,99826.81
2022-09-01T14:32:32.035Z,99823.97
2022-09-01T14:34:59.197Z,99823.84
2022-09-01T14:37:26.404Z,99827.44
2022-09-01T14:39:54.851Z,99828.34
2022-09-01T14:42:24.045Z,99830.41
2022-09-01T14:44:51.538Z,99830.56
2022-09-01T14:47:21.396Z,99823.44
2022-09-01T14:49:48.556Z,99830.34
2022-09-01T14:52:17.808Z,99829.50
2022-09-01T14:54:45.435Z,99830.72
2022-09-01T14:57:36.301Z,99828.75
2022-09-01T15:00:01.514Z,99821.31
2022-09-01T15:02:31.534Z,99831.50
2022-09-01T15:04:58.743Z,99833.84
2022-09-01T15:07:26.167Z,99822.72
2022-09-01T15:09:53.391Z,99826.91
2022-09-01T15:12:21.736Z,99820.56
2022-09-01T15:14:49.223Z,99825.63
2022-09-01T15:17:16.415Z,99825.41
2022-09-01T15:19:43.605Z,99830.25
2022-09-01T15:22:14.475Z,99825.56
2022-09-01T15:24:41.971Z,99827.38
2022-09-01T15:27:09.700Z,99826.53
2022-09-01T15:29:46.191Z,99826.34
2022-09-01T15:32:20.512Z,99823.03
2022-09-01T15:34:55.515Z,99826.97
2022-09-01T15:37:22.696Z,99827.75
2022-09-01T15:39:49.947Z,99829.97
2022-09-01T15:42:18.502Z,99825.25
2022-09-01T15:44:47.332Z,99834.00
2022-09-01T15:47:14.504Z,99834.34
2022-09-01T15:49:43.511Z,99836.03
2022-09-01T15:52:10.854Z,99833.94
2022-09-01T15:54:38.154Z,99836.34
2022-09-01T15:57:06.428Z,99829.50
2022-09-01T15:59:40.054Z,99833.59
2022-09-01T16:02:07.874Z,99842.13
2022-09-01T16:04:35.346Z,99841.97
2022-09-01T16:07:02.601Z,99838.69
2022-09-01T16:09:29.756Z,99845.91
2022-09-01T16:11:57.289Z,99848.37
2022-09-01T16:14:24.445Z,99840.91
2022-09-01T16:16:54.655Z,99844.66
2022-09-01T16:19:22.599Z,99845.50
2022-09-01T16:21:53.359Z,99842.59
2022-09-01T16:24:20.726Z,99844.56
2022-09-01T16:26:48.492Z,99843.69
2022-09-01T16:29:21.987Z,99835.09
2022-09-01T16:31:51.493Z,99835.38
2022-09-01T16:34:18.750Z,99834.09
2022-09-01T16:36:59.409Z,99837.12
2022-09-01T16:39:29.797Z,99834.41
2022-09-01T16:42:01.271Z,99832.69
2022-09-01T16:44:31.768Z,99836.13
2022-09-01T16:47:19.234Z,99834.19
2022-09-01T16:50:03.929Z,99836.84
2022-09-01T16:52:34.492Z,99838.16
2022-09-01T16:55:06.202Z,99837.28
2022-09-01T16:57:45.646Z,99849.94
2022-09-01T17:00:14.189Z,99843.06
2022-09-01T17:02:42.014Z,99851.44
2022-09-01T17:05:13.016Z,99854.09
2022-09-01T17:07:45.029Z,99852.12
2022-09-01T17:10:25.025Z,99850.72
2022-09-01T17:12:55.991Z,99848.59
2022-09-01T17:15:40.092Z,99844.84
2022-09-01T17:18:22.098Z,99848.84
2022-09-01T17:20:58.095Z,99856.16
2022-09-01T17:23:28.747Z,99854.13
2022-09-01T17:26:07.935Z,99850.53
2022-09-01T17:28:37.020Z,99853.25
2022-09-01T17:31:14.640Z,99854.34
2022-09-01T17:33:48.103Z,99860.91
2022-09-01T17:36:22.822Z,99855.87
2022-09-01T17:39:01.480Z,99860.38
2022-09-01T17:41:38.127Z,99870.69
2022-09-01T17:44:24.081Z,99859.53
2022-09-01T17:46:54.974Z,99863.19
2022-09-01T17:49:28.766Z,99871.91
2022-09-01T17:52:15.222Z,99874.41
2022-09-01T17:54:58.643Z,99876.78
2022-09-01T17:57:39.396Z,99884.75
2022-09-01T18:00:08.984Z,99880.44
2022-09-01T18:02:46.752Z,99888.81
2022-09-01T18:05:15.036Z,99896.31
2022-09-01T18:08:01.205Z,99895.31
2022-09-01T18:10:49.439Z,99900.41
2022-09-01T18:13:30.747Z,99897.50
2022-09-01T18:16:06.836Z,99901.31
2022-09-01T18:18:38.168Z,99908.87
2022-09-01T18:21:08.173Z,99916.75
2022-09-01T18:23:37.472Z,99914.00
2022-09-01T18:26:23.240Z,99913.19
2022-09-01T18:28:51.565Z,99914.69
2022-09-01T18:31:25.675Z,99916.00
2022-09-01T18:33:53.138Z,99920.34
2022-09-01T18:36:34.052Z,99927.97
2022-09-01T18:39:09.731Z,99926.88
2022-09-01T18:41:43.047Z,99929.03
2022-09-01T18:44:26.700Z,99928.56
2022-09-01T18:47:03.060Z,99924.19
2022-09-01T18:49:35.796Z,99929.88
2022-09-01T18:52:06.426Z,99936.50
2022-09-01T18:54:35.729Z,99932.34
2022-09-01T18:57:07.076Z,99937.53
2022-09-01T18:59:38.712Z,99940.78
2022-09-01T19:02:06.759Z,99935.19
2022-09-01T19:04:37.947Z,99941.09
2022-09-01T19:07:06.006Z,99939.34
2022-09-01T19:09:39.338Z,99939.94
2022-09-01T19:12:10.849Z,99941.75
2022-09-01T19:14:57.351Z,99939.37
2022-09-01T19:17:25.136Z,99938.41
2022-09-01T19:19:52.352Z,99947.81
2022-09-01T19:22:21.858Z,99939.53
2022-09-01T19:25:19.895Z,99953.19
2022-09-01T19:27:50.872Z,99945.91
2022-09-01T19:30:18.702Z,99949.56
2022-09-01T19:32:46.234Z,99947.03
2022-09-01T19:35:15.060Z,99956.25
2022-09-01T19:37:46.711Z,99953.56
2022-09-01T19:40:18.131Z,99955.91
2022-09-01T19:42:58.011Z,99960.78
2022-09-01T19:45:29.260Z,99958.56
2022-09-01T19:48:04.769Z,99952.31
2022-09-01T19:50:46.215Z,99949.06
2022-09-01T19:53:24.051Z,99955.97
2022-09-01T19:55:55.411Z,99959.59
2022-09-01T19:58:38.509Z,99964.88
2022-09-01T20:01:05.868Z,99960.28
2022-09-01T20:03:34.888Z,99964.88
2022-09-01T20:06:06.991Z,99955.09
2022-09-01T20:08:40.525Z,99961.22
2022-09-01T20:11:10.696Z,99961.66
2022-09-01T20:13:47.898Z,99969.28
2022-09-01T20:16:21.125Z,99967.38
2022-09-01T20:19:03.587Z,99965.75
2022-09-01T20:21:31.385Z,99967.56
2022-09-01T20:23:58.745Z,99975.47
2022-09-01T20:26:27.099Z,99975.75
2022-09-01T20:29:26.799Z,99975.41
2022-09-01T20:31:55.977Z,99986.03
2022-09-01T20:34:35.505Z,99983.34
2022-09-01T20:37:03.455Z,99979.81
2022-09-01T20:39:58.681Z,99984.56
2022-09-01T20:42:35.140Z,99993.63
2022-09-01T20:45:10.328Z,100001.72
2022-09-01T20:47:37.737Z,99998.28
2022-09-01T20:50:10.536Z,99994.06
2022-09-01T20:52:53.331Z,99995.09
2022-09-01T20:55:36.095Z,99992.94
2022-09-01T20:58:09.368Z,99993.81
2022-09-01T21:00:50.380Z,99994.31
2022-09-01T21:03:33.950Z,100001.50
2022-09-01T21:06:07.888Z,100012.03
2022-09-01T21:08:37.065Z,100002.22
2022-09-01T21:11:13.883Z,100011.53
2022-09-01T21:13:44.357Z,100007.44
2022-09-01T21:16:30.618Z,100016.81
2022-09-01T21:19:01.947Z,100017.22
2022-09-01T21:21:29.113Z,100028.56
2022-09-01T21:23:56.342Z,100024.66
2022-09-01T21:26:24.976Z,100027.13
2022-09-01T21:28:53.554Z,100033.13
2022-09-01T21:31:21.398Z,100034.09
2022-09-01T21:33:48.861Z,100032.47
2022-09-01T21:36:16.412Z,100040.28
2022-09-01T21:38:43.604Z,100045.56
2022-09-01T21:41:13.252Z,100040.97
2022-09-01T21:43:41.822Z,100042.22
2022-09-01T21:46:09.376Z,100041.38
2022-09-01T21:48:37.143Z,100040.78
2022-09-01T21:51:04.820Z,100039.00
2022-09-01T21:53:32.283Z,100039.78
2022-09-01T21:55:59.934Z,100032.88
2022-09-01T21:58:27.292Z,100036.25
2022-09-01T22:00:54.563Z,100026.41
2022-09-01T22:03:22.101Z,100021.25
2022-09-01T22:05:51.197Z,100022.78
2022-09-01T22:08:19.007Z,100019.38
2022-09-01T22:10:51.579Z,100012.59
2022-09-01T22:13:19.385Z,100010.41
2022-09-01T22:15:47.941Z,100012.31
2022-09-01T22:18:15.680Z,100008.69
2022-09-01T22:20:42.905Z,99998.03
2022-09-01T22:23:10.458Z,99990.47
2022-09-01T22:25:40.676Z,99992.81
2022-09-01T22:28:07.903Z,99995.47
2022-09-01T22:30:35.568Z,99992.84
2022-09-01T22:33:04.310Z,99995.22
2022-09-01T22:35:32.570Z,99984.69
2022-09-01T22:38:00.042Z,99984.44
2022-09-01T22:40:27.260Z,99982.47
2022-09-01T22:42:56.736Z,99984.84
2022-09-01T22:45:24.270Z,99989.09
2022-09-01T22:47:51.485Z,99984.66
2022-09-01T22:50:18.668Z,99990.69
2022-09-01T22:52:47.203Z,99985.25
2022-09-01T22:55:14.420Z,99987.66
2022-09-01T22:57:41.665Z,99986.44
2022-09-01T23:00:10.116Z,99982.69
2022-09-01T23:02:37.458Z,99984.06
2022-09-01T23:05:06.090Z,99977.81
2022-09-01T23:07:34.492Z,99976.16
2022-09-01T23:10:01.643Z,99980.72
2022-09-01T23:12:37.737Z,99975.34
2022-09-01T23:15:05.645Z,99969.44
2022-09-01T23:17:33.201Z,99979.44
2022-09-01T23:20:02.312Z,99967.16
2022-09-01T23:22:29.830Z,99973.13
2022-09-01T23:24:56.960Z,99970.81
2022-09-01T23:27:24.177Z,99973.22
2022-09-01T23:29:51.808Z,99966.66
2022-09-01T23:32:19.253Z,99969.00
2022-09-01T23:34:47.747Z,99966.44
2022-09-01T23:37:15.167Z,99972.53
2022-09-01T23:39:42.504Z,99964.66
2022-09-01T23:42:09.836Z,99965.59
2022-09-01T23:44:37.256Z,99972.28
2022-09-01T23:47:04.419Z,99971.84
2022-09-01T23:49:31.557Z,99975.28
2022-09-01T23:51:59.118Z,99973.06
2022-09-01T23:54:27.299Z,99973.50
2022-09-01T23:56:54.474Z,99975.12
2022-09-01T23:59:27.502Z,99969.59
